sensor_id;sensor_type;location;lat;lon;timestamp;pressure;altitude;pressure_sealevel;temperature;humidity
113;BME280;45999;48.808;9.182;2023-12-29T00:02:06;98133.50;;;9.32;100.00
113;BME280;45999;48.808;9.182;2023-12-29T00:04:32;98137.59;;;9.28;100.00
113;BME280;45999;48.808;9.182;2023-12-29T00:06:58;98126.56;;;9.38;100.00
113;BME280;45999;48.808;9.182;2023-12-29T00:09:25;98119.00;;;9.35;100.00
113;BME280;45999;48.808;9.182;2023-12-29T00:11:52;98123.28;;;9.36;100.00
113;BME280;45999;48.808;9.182;2023-12-29T00:14:19;98133.88;;;9.42;100.00
113;BME280;45999;48.808;9.182;2023-12-29T00:16:45;98134.91;;;9.41;100.00
113;BME280;45999;48.808;9.182;2023-12-29T00:19:12;98136.09;;;9.52;100.00
113;BME280;45999;48.808;9.182;2023-12-29T00:21:38;98139.31;;;9.60;100.00
113;BME280;45999;48.808;9.182;2023-12-29T00:24:05;98127.50;;;9.56;100.00
113;BME280;45999;48.808;9.182;2023-12-29T00:26:31;98140.59;;;9.51;100.00
113;BME280;45999;48.808;9.182;2023-12-29T00:28:58;98119.59;;;9.50;100.00
113;BME280;45999;48.808;9.182;2023-12-29T00:31:24;98131.38;;;9.60;100.00
113;BME280;45999;48.808;9.182;2023-12-29T00:33:51;98125.66;;;9.57;100.00
113;BME280;45999;48.808;9.182;2023-12-29T00:36:20;98128.16;;;9.45;100.00
113;BME280;45999;48.808;9.182;2023-12-29T00:38:49;98127.56;;;9.50;100.00
113;BME280;45999;48.808;9.182;2023-12-29T00:41:15;98123.69;;;9.46;100.00
113;BME280;45999;48.808;9.182;2023-12-29T00:43:42;98116.88;;;9.56;100.00
113;BME280;45999;48.808;9.182;2023-12-29T00:46:14;98121.41;;;9.49;100.00
113;BME280;45999;48.808;9.182;2023-12-29T00:48:41;98121.25;;;9.38;100.00
113;BME280;45999;48.808;9.182;2023-12-29T00:51:10;98127.63;;;9.30;100.00
113;BME280;45999;48.808;9.182;2023-12-29T00:53:37;98126.75;;;9.43;100.00
113;BME280;45999;48.808;9.182;2023-12-29T00:56:09;98132.69;;;9.38;100.00
113;BME280;45999;48.808;9.182;2023-12-29T00:58:39;98137.59;;;9.35;100.00
113;BME280;45999;48.808;9.182;2023-12-29T01:01:09;98137.56;;;9.41;100.00
113;BME280;45999;48.808;9.182;2023-12-29T01:03:37;98138.78;;;9.45;100.00
113;BME280;45999;48.808;9.182;2023-12-29T01:06:03;98144.47;;;9.49;100.00
113;BME280;45999;48.808;9.182;2023-12-29T01:08:30;98143.41;;;9.56;100.00
113;BME280;45999;48.808;9.182;2023-12-29T01:10:56;98153.59;;;9.66;100.00
113;BME280;45999;48.808;9.182;2023-12-29T01:13:22;98146.88;;;9.63;100.00
113;BME280;45999;48.808;9.182;2023-12-29T01:15:49;98149.91;;;9.67;100.00
113;BME280;45999;48.808;9.182;2023-12-29T01:18:18;98148.47;;;9.71;100.00
113;BME280;45999;48.808;9.182;2023-12-29T01:20:45;98140.72;;;9.69;100.00
113;BME280;45999;48.808;9.182;2023-12-29T01:23:11;98134.00;;;9.67;100.00
113;BME280;45999;48.808;9.182;2023-12-29T01:25:37;98123.81;;;9.64;100.00
113;BME280;45999;48.808;9.182;2023-12-29T01:28:04;98125.03;;;9.68;100.00
113;BME280;45999;48.808;9.182;2023-12-29T01:30:30;98128.47;;;9.68;100.00
113;BME280;45999;48.808;9.182;2023-12-29T01:32:56;98130.50;;;9.73;100.00
113;BME280;45999;48.808;9.182;2023-12-29T01:35:23;98133.75;;;9.75;100.00
113;BME280;45999;48.808;9.182;2023-12-29T01:37:52;98127.25;;;9.71;100.00
113;BME280;45999;48.808;9.182;2023-12-29T01:40:20;98144.78;;;9.72;100.00
113;BME280;45999;48.808;9.182;2023-12-29T01:42:46;98137.09;;;9.64;100.00
113;BME280;45999;48.808;9.182;2023-12-29T01:45:21;98137.06;;;9.70;100.00
113;BME280;45999;48.808;9.182;2023-12-29T01:47:49;98127.00;;;9.79;100.00
113;BME280;45999;48.808;9.182;2023-12-29T01:50:17;98124.31;;;9.85;100.00
113;BME280;45999;48.808;9.182;2023-12-29T01:52:45;98119.22;;;9.84;100.00
113;BME280;45999;48.808;9.182;2023-12-29T01:55:15;98120.84;;;9.85;100.00
113;BME280;45999;48.808;9.182;2023-12-29T01:57:43;98119.41;;;9.82;100.00
113;BME280;45999;48.808;9.182;2023-12-29T02:00:11;98126.97;;;9.85;100.00
113;BME280;45999;48.808;9.182;2023-12-29T02:02:39;98113.31;;;9.82;100.00
113;BME280;45999;48.808;9.182;2023-12-29T02:05:06;98119.06;;;9.72;100.00
113;BME280;45999;48.808;9.182;2023-12-29T02:07:33;98108.41;;;9.79;100.00
113;BME280;45999;48.808;9.182;2023-12-29T02:10:01;98110.03;;;9.80;100.00
113;BME280;45999;48.808;9.182;2023-12-29T02:12:29;98109.66;;;9.76;100.00
113;BME280;45999;48.808;9.182;2023-12-29T02:14:55;98109.88;;;9.75;100.00
113;BME280;45999;48.808;9.182;2023-12-29T02:17:27;98111.31;;;9.71;100.00
113;BME280;45999;48.808;9.182;2023-12-29T02:19:57;98109.44;;;9.78;100.00
113;BME280;45999;48.808;9.182;2023-12-29T02:22:24;98094.72;;;9.82;100.00
113;BME280;45999;48.808;9.182;2023-12-29T02:24:51;98104.53;;;9.81;100.00
113;BME280;45999;48.808;9.182;2023-12-29T02:30:13;98094.06;;;9.86;100.00
113;BME280;45999;48.808;9.182;2023-12-29T02:32:45;98087.31;;;9.90;100.00
113;BME280;45999;48.808;9.182;2023-12-29T02:35:21;98087.72;;;9.87;100.00
113;BME280;45999;48.808;9.182;2023-12-29T02:37:49;98094.88;;;9.93;100.00
113;BME280;45999;48.808;9.182;2023-12-29T02:40:16;98092.03;;;9.88;100.00
113;BME280;45999;48.808;9.182;2023-12-29T02:42:49;98094.91;;;9.87;100.00
113;BME280;45999;48.808;9.182;2023-12-29T02:45:16;98076.91;;;9.89;100.00
113;BME280;45999;48.808;9.182;2023-12-29T02:47:43;98077.94;;;9.88;100.00
113;BME280;45999;48.808;9.182;2023-12-29T02:50:10;98077.94;;;9.88;100.00
113;BME280;45999;48.808;9.182;2023-12-29T02:52:37;98085.72;;;9.83;100.00
113;BME280;45999;48.808;9.182;2023-12-29T02:55:04;98084.09;;;9.82;100.00
113;BME280;45999;48.808;9.182;2023-12-29T02:57:30;98078.78;;;9.82;100.00
113;BME280;45999;48.808;9.182;2023-12-29T02:59:56;98074.06;;;9.84;100.00
113;BME280;45999;48.808;9.182;2023-12-29T03:02:23;98064.31;;;9.78;100.00
113;BME280;45999;48.808;9.182;2023-12-29T03:04:50;98066.97;;;9.78;100.00
113;BME280;45999;48.808;9.182;2023-12-29T03:07:17;98061.69;;;9.71;100.00
113;BME280;45999;48.808;9.182;2023-12-29T03:09:43;98071.31;;;9.66;100.00
113;BME280;45999;48.808;9.182;2023-12-29T03:12:09;98072.94;;;9.67;100.00
113;BME280;45999;48.808;9.182;2023-12-29T03:14:36;98070.44;;;9.72;100.00
113;BME280;45999;48.808;9.182;2023-12-29T03:17:02;98062.94;;;9.69;100.00
113;BME280;45999;48.808;9.182;2023-12-29T03:19:29;98063.19;;;9.61;100.00
113;BME280;45999;48.808;9.182;2023-12-29T03:21:55;98048.13;;;9.55;100.00
113;BME280;45999;48.808;9.182;2023-12-29T03:24:21;98064.03;;;9.55;100.00
113;BME280;45999;48.808;9.182;2023-12-29T03:26:48;98059.34;;;9.50;100.00
113;BME280;45999;48.808;9.182;2023-12-29T03:29:14;98047.69;;;9.51;100.00
113;BME280;45999;48.808;9.182;2023-12-29T03:31:41;98040.41;;;9.47;100.00
113;BME280;45999;48.808;9.182;2023-12-29T03:34:07;98040.00;;;9.43;100.00
113;BME280;45999;48.808;9.182;2023-12-29T03:36:33;98041.47;;;9.39;100.00
113;BME280;45999;48.808;9.182;2023-12-29T03:39:00;98047.81;;;9.32;100.00
113;BME280;45999;48.808;9.182;2023-12-29T03:41:27;98036.22;;;9.26;100.00
113;BME280;45999;48.808;9.182;2023-12-29T03:43:54;98047.63;;;9.27;100.00
113;BME280;45999;48.808;9.182;2023-12-29T03:46:22;98040.09;;;9.24;100.00
113;BME280;45999;48.808;9.182;2023-12-29T03:48:49;98040.50;;;9.21;100.00
113;BME280;45999;48.808;9.182;2023-12-29T03:51:15;98037.25;;;9.19;100.00
113;BME280;45999;48.808;9.182;2023-12-29T03:53:42;98050.72;;;9.17;100.00
113;BME280;45999;48.808;9.182;2023-12-29T03:56:13;98045.03;;;9.20;100.00
113;BME280;45999;48.808;9.182;2023-12-29T03:58:39;98043.34;;;9.26;100.00
113;BME280;45999;48.808;9.182;2023-12-29T04:01:13;98037.25;;;9.25;100.00
113;BME280;45999;48.808;9.182;2023-12-29T04:03:40;98034.56;;;9.32;100.00
113;BME280;45999;48.808;9.182;2023-12-29T04:06:07;98034.13;;;9.35;100.00
113;BME280;45999;48.808;9.182;2023-12-29T04:08:34;98040.47;;;9.34;100.00
113;BME280;45999;48.808;9.182;2023-12-29T04:11:01;98027.78;;;9.36;100.00
113;BME280;45999;48.808;9.182;2023-12-29T04:13:28;98037.59;;;9.35;100.00
113;BME280;45999;48.808;9.182;2023-12-29T04:15:55;98033.53;;;9.33;100.00
113;BME280;45999;48.808;9.182;2023-12-29T04:18:23;98040.66;;;9.32;100.00
113;BME280;45999;48.808;9.182;2023-12-29T04:20:50;98027.00;;;9.29;100.00
113;BME280;45999;48.808;9.182;2023-12-29T04:23:16;98025.41;;;9.21;100.00
113;BME280;45999;48.808;9.182;2023-12-29T04:25:43;98033.19;;;9.16;100.00
113;BME280;45999;48.808;9.182;2023-12-29T04:28:09;98029.94;;;9.14;100.00
113;BME280;45999;48.808;9.182;2023-12-29T04:30:35;98035.19;;;9.21;100.00
113;BME280;45999;48.808;9.182;2023-12-29T04:33:02;98032.16;;;9.17;100.00
113;BME280;45999;48.808;9.182;2023-12-29T04:35:28;98035.63;;;9.18;100.00
113;BME280;45999;48.808;9.182;2023-12-29T04:37:55;98041.16;;;9.16;100.00
113;BME280;45999;48.808;9.182;2023-12-29T04:40:22;98034.84;;;9.11;100.00
113;BME280;45999;48.808;9.182;2023-12-29T04:42:49;98016.72;;;9.01;100.00
113;BME280;45999;48.808;9.182;2023-12-29T04:45:15;98028.75;;;8.97;100.00
113;BME280;45999;48.808;9.182;2023-12-29T04:47:42;98029.19;;;8.94;100.00
113;BME280;45999;48.808;9.182;2023-12-29T04:50:08;98035.72;;;8.98;100.00
113;BME280;45999;48.808;9.182;2023-12-29T04:52:34;98054.84;;;9.07;100.00
113;BME280;45999;48.808;9.182;2023-12-29T04:55:01;98053.00;;;9.14;100.00
113;BME280;45999;48.808;9.182;2023-12-29T04:57:27;98053.19;;;9.12;100.00
113;BME280;45999;48.808;9.182;2023-12-29T04:59:53;98052.75;;;9.15;100.00
113;BME280;45999;48.808;9.182;2023-12-29T05:02:20;98046.03;;;9.13;100.00
113;BME280;45999;48.808;9.182;2023-12-29T05:04:46;98041.75;;;9.18;100.00
113;BME280;45999;48.808;9.182;2023-12-29T05:07:13;98042.78;;;9.11;100.00
113;BME280;45999;48.808;9.182;2023-12-29T05:09:39;98038.09;;;9.13;100.00
113;BME280;45999;48.808;9.182;2023-12-29T05:12:12;98045.44;;;9.17;100.00
113;BME280;45999;48.808;9.182;2023-12-29T05:14:43;98045.03;;;9.14;100.00
113;BME280;45999;48.808;9.182;2023-12-29T05:17:10;98047.03;;;9.18;100.00
113;BME280;45999;48.808;9.182;2023-12-29T05:19:45;98053.78;;;9.21;100.00
113;BME280;45999;48.808;9.182;2023-12-29T05:22:13;98057.63;;;9.25;100.00
113;BME280;45999;48.808;9.182;2023-12-29T05:24:42;98059.06;;;9.21;100.00
113;BME280;45999;48.808;9.182;2023-12-29T05:27:16;98048.66;;;9.19;100.00
113;BME280;45999;48.808;9.182;2023-12-29T05:29:51;98047.88;;;9.19;100.00
113;BME280;45999;48.808;9.182;2023-12-29T05:32:18;98044.41;;;9.18;100.00
113;BME280;45999;48.808;9.182;2023-12-29T05:34:45;98034.44;;;9.14;100.00
113;BME280;45999;48.808;9.182;2023-12-29T05:37:11;98039.56;;;9.09;100.00
113;BME280;45999;48.808;9.182;2023-12-29T05:39:41;98045.69;;;9.03;100.00
113;BME280;45999;48.808;9.182;2023-12-29T05:42:08;98041.41;;;8.95;100.00
113;BME280;45999;48.808;9.182;2023-12-29T05:44:37;98040.19;;;8.98;100.00
113;BME280;45999;48.808;9.182;2023-12-29T05:47:06;98046.34;;;8.92;100.00
113;BME280;45999;48.808;9.182;2023-12-29T05:49:33;98053.47;;;8.85;100.00
113;BME280;45999;48.808;9.182;2023-12-29T05:52:05;98049.78;;;8.86;100.00
113;BME280;45999;48.808;9.182;2023-12-29T05:54:32;98056.97;;;8.85;100.00
113;BME280;45999;48.808;9.182;2023-12-29T05:56:58;98042.69;;;8.80;100.00
113;BME280;45999;48.808;9.182;2023-12-29T05:59:24;98033.31;;;8.77;100.00
113;BME280;45999;48.808;9.182;2023-12-29T06:01:51;98051.03;;;8.77;100.00
113;BME280;45999;48.808;9.182;2023-12-29T06:04:17;98063.88;;;8.80;100.00
113;BME280;45999;48.808;9.182;2023-12-29T06:06:44;98060.03;;;8.76;100.00
113;BME280;45999;48.808;9.182;2023-12-29T06:09:10;98053.31;;;8.73;100.00
113;BME280;45999;48.808;9.182;2023-12-29T06:11:37;98052.50;;;8.73;100.00
113;BME280;45999;48.808;9.182;2023-12-29T06:14:03;98053.72;;;8.70;100.00
113;BME280;45999;48.808;9.182;2023-12-29T06:16:30;98055.56;;;8.70;100.00
113;BME280;45999;48.808;9.182;2023-12-29T06:18:56;98055.56;;;8.70;100.00
113;BME280;45999;48.808;9.182;2023-12-29T06:21:23;98050.47;;;8.62;100.00
113;BME280;45999;48.808;9.182;2023-12-29T06:23:49;98051.28;;;8.62;100.00
113;BME280;45999;48.808;9.182;2023-12-29T06:26:20;98048.66;;;8.56;100.00
113;BME280;45999;48.808;9.182;2023-12-29T06:28:48;98048.44;;;8.57;100.00
113;BME280;45999;48.808;9.182;2023-12-29T06:31:14;98052.09;;;8.56;100.00
113;BME280;45999;48.808;9.182;2023-12-29T06:33:43;98053.53;;;8.59;100.00
113;BME280;45999;48.808;9.182;2023-12-29T06:36:10;98060.28;;;8.61;100.00
113;BME280;45999;48.808;9.182;2023-12-29T06:38:37;98044.78;;;8.58;100.00
113;BME280;45999;48.808;9.182;2023-12-29T06:41:03;98048.22;;;8.59;100.00
113;BME280;45999;48.808;9.182;2023-12-29T06:43:30;98036.19;;;8.56;100.00
113;BME280;45999;48.808;9.182;2023-12-29T06:45:56;98028.88;;;8.52;100.00
113;BME280;45999;48.808;9.182;2023-12-29T06:48:23;98020.94;;;8.52;100.00
113;BME280;45999;48.808;9.182;2023-12-29T06:50:49;98025.00;;;8.61;100.00
113;BME280;45999;48.808;9.182;2023-12-29T06:53:17;98031.91;;;8.62;100.00
113;BME280;45999;48.808;9.182;2023-12-29T06:55:43;98031.53;;;8.65;100.00
113;BME280;45999;48.808;9.182;2023-12-29T06:58:09;98040.25;;;8.65;100.00
113;BME280;45999;48.808;9.182;2023-12-29T07:00:36;98036.59;;;8.73;100.00
113;BME280;45999;48.808;9.182;2023-12-29T07:03:03;98037.00;;;8.76;100.00
113;BME280;45999;48.808;9.182;2023-12-29T07:05:29;98041.66;;;8.81;100.00
113;BME280;45999;48.808;9.182;2023-12-29T07:07:55;98044.09;;;8.89;100.00
113;BME280;45999;48.808;9.182;2023-12-29T07:10:22;98035.28;;;8.95;100.00
113;BME280;45999;48.808;9.182;2023-12-29T07:12:48;98034.47;;;9.01;100.00
113;BME280;45999;48.808;9.182;2023-12-29T07:15:15;98029.19;;;9.01;100.00
113;BME280;45999;48.808;9.182;2023-12-29T07:17:42;98030.78;;;9.02;100.00
113;BME280;45999;48.808;9.182;2023-12-29T07:20:08;98020.59;;;8.99;100.00
113;BME280;45999;48.808;9.182;2023-12-29T07:22:34;98021.84;;;8.90;100.00
113;BME280;45999;48.808;9.182;2023-12-29T07:25:01;98029.00;;;8.89;100.00
113;BME280;45999;48.808;9.182;2023-12-29T07:27:28;98022.47;;;8.92;100.00
113;BME280;45999;48.808;9.182;2023-12-29T07:29:54;98017.97;;;8.92;100.00
113;BME280;45999;48.808;9.182;2023-12-29T07:32:20;98026.34;;;8.89;100.00
113;BME280;45999;48.808;9.182;2023-12-29T07:34:47;98021.66;;;8.85;100.00
113;BME280;45999;48.808;9.182;2023-12-29T07:37:14;98019.00;;;8.91;100.00
113;BME280;45999;48.808;9.182;2023-12-29T07:39:40;98023.69;;;8.96;100.00
113;BME280;45999;48.808;9.182;2023-12-29T07:42:07;98027.16;;;8.90;100.00
113;BME280;45999;48.808;9.182;2023-12-29T07:44:33;98026.56;;;8.88;100.00
113;BME280;45999;48.808;9.182;2023-12-29T07:47:00;98024.28;;;8.98;100.00
113;BME280;45999;48.808;9.182;2023-12-29T07:49:26;98027.13;;;9.03;100.00
113;BME280;45999;48.808;9.182;2023-12-29T07:51:52;98025.50;;;9.02;100.00
113;BME280;45999;48.808;9.182;2023-12-29T07:54:19;98035.91;;;9.03;100.00
113;BME280;45999;48.808;9.182;2023-12-29T07:56:45;98026.91;;;9.04;100.00
113;BME280;45999;48.808;9.182;2023-12-29T07:59:16;98027.50;;;9.06;100.00
113;BME280;45999;48.808;9.182;2023-12-29T08:01:42;98036.66;;;9.17;100.00
113;BME280;45999;48.808;9.182;2023-12-29T08:04:08;98037.25;;;9.19;100.00
113;BME280;45999;48.808;9.182;2023-12-29T08:06:37;98038.25;;;9.18;100.00
113;BME280;45999;48.808;9.182;2023-12-29T08:09:04;98036.41;;;9.25;100.00
113;BME280;45999;48.808;9.182;2023-12-29T08:11:30;98042.75;;;9.24;100.00
113;BME280;45999;48.808;9.182;2023-12-29T08:13:57;98033.75;;;9.25;100.00
113;BME280;45999;48.808;9.182;2023-12-29T08:16:23;98029.03;;;9.27;100.00
113;BME280;45999;48.808;9.182;2023-12-29T08:18:50;98037.81;;;9.27;100.00
113;BME280;45999;48.808;9.182;2023-12-29T08:21:19;98049.00;;;9.36;100.00
113;BME280;45999;48.808;9.182;2023-12-29T08:23:47;98046.53;;;9.47;100.00
113;BME280;45999;48.808;9.182;2023-12-29T08:26:15;98055.28;;;9.48;100.00
113;BME280;45999;48.808;9.182;2023-12-29T08:28:41;98048.53;;;9.52;100.00
113;BME280;45999;48.808;9.182;2023-12-29T08:31:07;98049.34;;;9.52;100.00
113;BME280;45999;48.808;9.182;2023-12-29T08:33:34;98058.31;;;9.51;100.00
113;BME280;45999;48.808;9.182;2023-12-29T08:36:02;98050.97;;;9.53;100.00
113;BME280;45999;48.808;9.182;2023-12-29T08:38:30;98049.09;;;9.60;100.00
113;BME280;45999;48.808;9.182;2023-12-29T08:40:57;98068.09;;;9.57;100.00
113;BME280;45999;48.808;9.182;2023-12-29T08:43:23;98048.50;;;9.58;100.00
113;BME280;45999;48.808;9.182;2023-12-29T08:45:50;98054.44;;;9.54;100.00
113;BME280;45999;48.808;9.182;2023-12-29T08:48:16;98058.91;;;9.60;100.00
113;BME280;45999;48.808;9.182;2023-12-29T08:50:46;98063.00;;;9.56;100.00
113;BME280;45999;48.808;9.182;2023-12-29T08:53:16;98050.97;;;9.53;100.00
113;BME280;45999;48.808;9.182;2023-12-29T08:55:46;98060.00;;;9.46;100.00
113;BME280;45999;48.808;9.182;2023-12-29T08:58:22;98063.63;;;9.51;100.00
113;BME280;45999;48.808;9.182;2023-12-29T09:00:48;98066.94;;;9.47;100.00
113;BME280;45999;48.808;9.182;2023-12-29T09:03:15;98063.25;;;9.48;100.00
113;BME280;45999;48.808;9.182;2023-12-29T09:05:41;98057.16;;;9.47;100.00
113;BME280;45999;48.808;9.182;2023-12-29T09:08:07;98059.19;;;9.45;100.00
113;BME280;45999;48.808;9.182;2023-12-29T09:10:34;98060.97;;;9.51;100.00
113;BME280;45999;48.808;9.182;2023-12-29T09:13:00;98046.59;;;9.65;100.00
113;BME280;45999;48.808;9.182;2023-12-29T09:15:26;98057.41;;;9.70;100.00
113;BME280;45999;48.808;9.182;2023-12-29T09:17:53;98064.72;;;9.75;100.00
113;BME280;45999;48.808;9.182;2023-12-29T09:20:19;98054.06;;;9.81;100.00
113;BME280;45999;48.808;9.182;2023-12-29T09:22:45;98057.38;;;9.77;100.00
113;BME280;45999;48.808;9.182;2023-12-29T09:25:12;98057.56;;;9.82;100.00
113;BME280;45999;48.808;9.182;2023-12-29T09:27:38;98059.13;;;9.89;100.00
113;BME280;45999;48.808;9.182;2023-12-29T09:30:05;98056.00;;;9.99;100.00
113;BME280;45999;48.808;9.182;2023-12-29T09:32:32;98062.19;;;10.24;100.00
113;BME280;45999;48.808;9.182;2023-12-29T09:34:58;98073.63;;;10.24;100.00
113;BME280;45999;48.808;9.182;2023-12-29T09:37:25;98080.28;;;10.33;100.00
113;BME280;45999;48.808;9.182;2023-12-29T09:39:51;98078.19;;;10.42;100.00
113;BME280;45999;48.808;9.182;2023-12-29T09:42:20;98077.75;;;10.45;100.00
113;BME280;45999;48.808;9.182;2023-12-29T09:44:50;98085.84;;;10.32;100.00
113;BME280;45999;48.808;9.182;2023-12-29T09:47:22;98081.25;;;10.39;100.00
113;BME280;45999;48.808;9.182;2023-12-29T09:49:49;98088.66;;;10.37;100.00
113;BME280;45999;48.808;9.182;2023-12-29T09:52:18;98079.22;;;10.41;100.00
113;BME280;45999;48.808;9.182;2023-12-29T09:54:46;98078.59;;;10.39;100.00
113;BME280;45999;48.808;9.182;2023-12-29T09:57:13;98089.56;;;10.49;100.00
113;BME280;45999;48.808;9.182;2023-12-29T09:59:40;98085.84;;;10.56;100.00
113;BME280;45999;48.808;9.182;2023-12-29T10:02:14;98096.13;;;10.71;100.00
113;BME280;45999;48.808;9.182;2023-12-29T10:04:42;98101.97;;;10.79;100.00
113;BME280;45999;48.808;9.182;2023-12-29T10:07:10;98095.34;;;10.88;100.00
113;BME280;45999;48.808;9.182;2023-12-29T10:09:40;98093.34;;;10.84;100.00
113;BME280;45999;48.808;9.182;2023-12-29T10:12:09;98084.38;;;10.78;100.00
113;BME280;45999;48.808;9.182;2023-12-29T10:14:43;98080.19;;;10.89;100.00
113;BME280;45999;48.808;9.182;2023-12-29T10:20:15;98073.13;;;11.01;100.00
113;BME280;45999;48.808;9.182;2023-12-29T10:25:42;98074.44;;;11.10;100.00
113;BME280;45999;48.808;9.182;2023-12-29T10:28:12;98074.38;;;11.17;100.00
113;BME280;45999;48.808;9.182;2023-12-29T10:30:39;98071.34;;;11.13;100.00
113;BME280;45999;48.808;9.182;2023-12-29T10:33:05;98062.56;;;11.13;100.00
113;BME280;45999;48.808;9.182;2023-12-29T10:35:32;98063.13;;;11.14;100.00
113;BME280;45999;48.808;9.182;2023-12-29T10:38:12;98053.88;;;11.17;100.00
113;BME280;45999;48.808;9.182;2023-12-29T10:40:39;98059.38;;;11.22;100.00
113;BME280;45999;48.808;9.182;2023-12-29T10:43:08;98054.50;;;11.19;100.00
113;BME280;45999;48.808;9.182;2023-12-29T10:45:34;98048.34;;;11.18;100.00
113;BME280;45999;48.808;9.182;2023-12-29T10:48:01;98051.97;;;11.24;100.00
113;BME280;45999;48.808;9.182;2023-12-29T10:50:28;98049.38;;;11.18;100.00
113;BME280;45999;48.808;9.182;2023-12-29T10:53:19;98042.59;;;11.22;100.00
113;BME280;45999;48.808;9.182;2023-12-29T10:55:45;98038.53;;;11.19;100.00
113;BME280;45999;48.808;9.182;2023-12-29T10:58:11;98044.66;;;11.19;100.00
113;BME280;45999;48.808;9.182;2023-12-29T11:00:38;98025.38;;;11.24;100.00
113;BME280;45999;48.808;9.182;2023-12-29T11:03:04;98034.38;;;11.23;100.00
113;BME280;45999;48.808;9.182;2023-12-29T11:05:32;98022.25;;;11.27;100.00
113;BME280;45999;48.808;9.182;2023-12-29T11:07:58;98023.19;;;11.32;100.00
113;BME280;45999;48.808;9.182;2023-12-29T11:10:25;98027.50;;;11.34;100.00
113;BME280;45999;48.808;9.182;2023-12-29T11:12:52;98020.53;;;11.32;100.00
113;BME280;45999;48.808;9.182;2023-12-29T11:15:18;98020.78;;;11.31;100.00
113;BME280;45999;48.808;9.182;2023-12-29T11:17:45;98016.59;;;11.35;100.00
113;BME280;45999;48.808;9.182;2023-12-29T11:20:16;98010.84;;;11.38;100.00
113;BME280;45999;48.808;9.182;2023-12-29T11:22:46;98005.09;;;11.41;100.00
113;BME280;45999;48.808;9.182;2023-12-29T11:25:14;98007.00;;;11.34;100.00
113;BME280;45999;48.808;9.182;2023-12-29T11:27:42;98015.34;;;11.38;100.00
113;BME280;45999;48.808;9.182;2023-12-29T11:30:11;98012.97;;;11.48;100.00
113;BME280;45999;48.808;9.182;2023-12-29T11:32:51;98008.00;;;11.51;100.00
113;BME280;45999;48.808;9.182;2023-12-29T11:35:23;98010.22;;;11.54;100.00
113;BME280;45999;48.808;9.182;2023-12-29T11:38:02;98013.63;;;11.61;100.00
113;BME280;45999;48.808;9.182;2023-12-29T11:40:44;98008.72;;;11.58;100.00
113;BME280;45999;48.808;9.182;2023-12-29T11:43:16;97999.94;;;11.58;100.00
113;BME280;45999;48.808;9.182;2023-12-29T11:45:44;98000.09;;;11.63;100.00
113;BME280;45999;48.808;9.182;2023-12-29T11:48:10;97996.16;;;11.65;100.00
113;BME280;45999;48.808;9.182;2023-12-29T11:50:39;98001.63;;;11.70;100.00
113;BME280;45999;48.808;9.182;2023-12-29T11:53:07;98000.13;;;11.74;100.00
113;BME280;45999;48.808;9.182;2023-12-29T11:55:37;97993.19;;;11.73;100.00
113;BME280;45999;48.808;9.182;2023-12-29T11:58:22;97990.53;;;11.73;100.00
113;BME280;45999;48.808;9.182;2023-12-29T12:00:50;97996.31;;;11.70;100.00
113;BME280;45999;48.808;9.182;2023-12-29T12:03:26;97987.75;;;11.68;100.00
113;BME280;45999;48.808;9.182;2023-12-29T12:05:55;97982.72;;;11.60;100.00
113;BME280;45999;48.808;9.182;2023-12-29T12:08:28;97982.72;;;11.60;100.00
113;BME280;45999;48.808;9.182;2023-12-29T12:10:55;97974.88;;;11.65;100.00
113;BME280;45999;48.808;9.182;2023-12-29T12:13:46;97975.13;;;11.75;100.00
113;BME280;45999;48.808;9.182;2023-12-29T12:19:11;97965.53;;;11.86;100.00
113;BME280;45999;48.808;9.182;2023-12-29T12:21:38;97966.72;;;11.90;100.00
113;BME280;45999;48.808;9.182;2023-12-29T12:24:04;97979.22;;;12.01;100.00
113;BME280;45999;48.808;9.182;2023-12-29T12:26:31;97967.41;;;11.97;100.00
113;BME280;45999;48.808;9.182;2023-12-29T12:28:58;97960.22;;;11.97;100.00
113;BME280;45999;48.808;9.182;2023-12-29T12:31:26;97963.50;;;11.99;100.00
113;BME280;45999;48.808;9.182;2023-12-29T12:33:56;97964.41;;;12.05;100.00
113;BME280;45999;48.808;9.182;2023-12-29T12:36:26;97966.72;;;12.13;100.00
113;BME280;45999;48.808;9.182;2023-12-29T12:41:20;97962.22;;;12.25;100.00
113;BME280;45999;48.808;9.182;2023-12-29T12:46:33;97950.41;;;12.44;100.00
113;BME280;45999;48.808;9.182;2023-12-29T12:49:00;97951.44;;;12.43;100.00
113;BME280;45999;48.808;9.182;2023-12-29T12:51:28;97947.72;;;12.55;100.00
113;BME280;45999;48.808;9.182;2023-12-29T12:53:55;97954.91;;;12.43;100.00
113;BME280;45999;48.808;9.182;2023-12-29T12:56:21;97953.63;;;12.34;100.00
113;BME280;45999;48.808;9.182;2023-12-29T12:58:48;97966.06;;;12.29;100.00
113;BME280;45999;48.808;9.182;2023-12-29T13:01:15;97966.28;;;12.27;100.00
113;BME280;45999;48.808;9.182;2023-12-29T13:03:43;97959.69;;;12.18;100.00
113;BME280;45999;48.808;9.182;2023-12-29T13:06:10;97969.84;;;12.21;100.00
113;BME280;45999;48.808;9.182;2023-12-29T13:08:37;97967.91;;;12.17;100.00
113;BME280;45999;48.808;9.182;2023-12-29T13:11:04;97969.63;;;12.11;100.00
113;BME280;45999;48.808;9.182;2023-12-29T13:13:40;97963.84;;;12.14;100.00
113;BME280;45999;48.808;9.182;2023-12-29T13:16:07;97967.06;;;12.16;100.00
113;BME280;45999;48.808;9.182;2023-12-29T13:18:34;97973.66;;;12.02;100.00
113;BME280;45999;48.808;9.182;2023-12-29T13:21:02;97970.56;;;12.05;100.00
113;BME280;45999;48.808;9.182;2023-12-29T13:23:31;97962.34;;;12.07;100.00
113;BME280;45999;48.808;9.182;2023-12-29T13:26:02;97971.22;;;12.01;100.00
113;BME280;45999;48.808;9.182;2023-12-29T13:28:31;97980.88;;;12.02;100.00
113;BME280;45999;48.808;9.182;2023-12-29T13:30:58;97963.94;;;11.96;100.00
113;BME280;45999;48.808;9.182;2023-12-29T13:33:33;97975.16;;;11.98;100.00
113;BME280;45999;48.808;9.182;2023-12-29T13:36:47;97969.59;;;12.00;100.00
113;BME280;45999;48.808;9.182;2023-12-29T13:42:03;97966.34;;;11.86;100.00
113;BME280;45999;48.808;9.182;2023-12-29T13:44:31;97974.22;;;11.81;100.00